createdAt,value
2019-06-15T00:00:41.146Z,934.85
2019-06-15T00:01:41.138Z,934.82
2019-06-15T00:02:41.123Z,934.90
2019-06-15T00:03:41.109Z,934.89
2019-06-15T00:04:41.071Z,934.84
2019-06-15T00:05:41.051Z,934.88
2019-06-15T00:06:41.039Z,934.89
2019-06-15T00:07:40.985Z,934.87
2019-06-15T00:08:40.986Z,934.88
2019-06-15T00:09:40.950Z,934.89
2019-06-15T00:10:40.937Z,934.85
2019-06-15T00:11:40.916Z,934.87
2019-06-15T00:12:40.902Z,934.91
2019-06-15T00:13:40.892Z,934.92
2019-06-15T00:14:40.871Z,934.96
2019-06-15T00:15:40.820Z,934.89
2019-06-15T00:16:40.885Z,934.90
2019-06-15T00:17:40.806Z,934.91
2019-06-15T00:18:40.760Z,934.89
2019-06-15T00:19:40.768Z,934.95
2019-06-15T00:20:40.720Z,934.94
2019-06-15T00:21:40.723Z,934.89
2019-06-15T00:22:40.672Z,934.94
2019-06-15T00:23:40.674Z,934.93
2019-06-15T00:24:40.662Z,934.93
2019-06-15T00:25:40.697Z,934.96
2019-06-15T00:26:40.617Z,934.94
2019-06-15T00:27:40.603Z,934.93
2019-06-15T00:28:40.652Z,934.90
2019-06-15T00:29:40.538Z,934.92
2019-06-15T00:30:40.525Z,934.96
2019-06-15T00:31:40.502Z,934.94
2019-06-15T00:32:40.491Z,934.91
2019-06-15T00:33:40.484Z,934.92
2019-06-15T00:34:40.430Z,934.93
2019-06-15T00:35:40.432Z,934.91
2019-06-15T00:36:40.404Z,934.87
2019-06-15T00:37:40.380Z,934.88
2019-06-15T00:38:40.371Z,934.91
2019-06-15T00:39:40.338Z,934.91
2019-06-15T00:40:40.329Z,934.86
2019-06-15T00:41:40.313Z,934.87
2019-06-15T00:42:40.265Z,934.85
2019-06-15T00:43:40.269Z,934.85
2019-06-15T00:44:40.213Z,934.89
2019-06-15T00:45:40.195Z,934.87
2019-06-15T00:46:40.215Z,934.87
2019-06-15T00:47:40.171Z,934.87
2019-06-15T00:48:40.147Z,934.87
2019-06-15T00:49:40.117Z,934.90
2019-06-15T00:50:40.120Z,934.93
2019-06-15T00:51:40.076Z,934.91
2019-06-15T00:52:40.093Z,934.87
2019-06-15T00:53:40.033Z,934.90
2019-06-15T00:54:49.994Z,934.92
2019-06-15T00:55:40.008Z,934.94
2019-06-15T00:56:39.983Z,934.93
2019-06-15T00:57:39.958Z,934.94
2019-06-15T00:58:39.940Z,934.90
2019-06-15T00:59:39.924Z,934.94
2019-06-15T01:00:39.895Z,934.91
2019-06-15T01:01:39.887Z,934.90
2019-06-15T01:02:39.864Z,934.94
2019-06-15T01:03:39.833Z,934.91
2019-06-15T01:04:39.830Z,934.87
2019-06-15T01:05:39.801Z,934.91
2019-06-15T01:06:39.770Z,934.88
2019-06-15T01:07:39.736Z,934.89
2019-06-15T01:08:39.735Z,934.91
2019-06-15T01:09:39.736Z,934.84
2019-06-15T01:10:39.687Z,934.81
2019-06-15T01:11:39.681Z,934.83
2019-06-15T01:12:39.661Z,934.88
2019-06-15T01:13:39.626Z,934.82
2019-06-15T01:14:39.612Z,934.85
2019-06-15T01:15:39.598Z,934.86
2019-06-15T01:16:39.543Z,934.83
2019-06-15T01:17:39.550Z,934.85
2019-06-15T01:18:39.532Z,934.88
2019-06-15T01:19:39.499Z,934.87
2019-06-15T01:20:39.484Z,934.87
2019-06-15T01:21:39.465Z,934.87
2019-06-15T01:22:39.444Z,934.80
2019-06-15T01:23:39.431Z,934.83
2019-06-15T01:24:39.401Z,934.80
2019-06-15T01:25:39.384Z,934.81
2019-06-15T01:26:39.347Z,934.84
2019-06-15T01:27:39.324Z,934.84
2019-06-15T01:28:39.328Z,934.84
2019-06-15T01:29:39.270Z,934.82
2019-06-15T01:30:39.246Z,934.82
2019-06-15T01:31:39.249Z,934.83
2019-06-15T01:32:39.229Z,934.84
2019-06-15T01:33:39.203Z,934.87
2019-06-15T01:34:39.159Z,934.86
2019-06-15T01:35:39.139Z,934.81
2019-06-15T01:36:39.147Z,934.87
2019-06-15T01:37:39.127Z,934.88
2019-06-15T01:38:39.103Z,934.84
2019-06-15T01:39:39.071Z,934.86
2019-06-15T01:40:39.059Z,934.89
2019-06-15T01:41:39.009Z,934.86
2019-06-15T01:42:38.993Z,934.81
2019-06-15T01:43:39.001Z,934.85
2019-06-15T01:44:38.950Z,934.86
2019-06-15T01:45:38.926Z,934.87
2019-06-15T01:46:38.922Z,934.84
2019-06-15T01:47:38.918Z,934.84
2019-06-15T01:48:38.890Z,934.83
2019-06-15T01:49:38.860Z,934.86
2019-06-15T01:50:38.848Z,934.88
2019-06-15T01:51:38.838Z,934.87
2019-06-15T01:52:38.805Z,934.88
2019-06-15T01:53:38.790Z,934.83
2019-06-15T01:54:38.792Z,934.85
2019-06-15T01:55:38.746Z,934.85
2019-06-15T01:56:38.696Z,934.84
2019-06-15T01:57:38.677Z,934.88
2019-06-15T01:58:38.665Z,934.82
2019-06-15T01:59:38.630Z,934.87
2019-06-15T02:00:38.640Z,934.86
2019-06-15T02:01:38.627Z,934.84
2019-06-15T02:02:38.602Z,934.85
2019-06-15T02:03:38.583Z,934.83
2019-06-15T02:04:38.607Z,934.81
2019-06-15T02:05:38.550Z,934.82
2019-06-15T02:06:38.518Z,934.81
2019-06-15T02:07:38.505Z,934.83
2019-06-15T02:08:38.475Z,934.83
2019-06-15T02:09:38.436Z,934.83
2019-06-15T02:10:38.414Z,934.84
2019-06-15T02:11:38.402Z,934.87
2019-06-15T02:12:38.383Z,934.87
2019-06-15T02:13:38.367Z,934.82
2019-06-15T02:14:38.329Z,934.88
2019-06-15T02:15:38.368Z,934.83
2019-06-15T02:16:38.298Z,934.84
2019-06-15T02:17:38.267Z,934.78
2019-06-15T02:18:38.249Z,934.80
2019-06-15T02:19:38.204Z,934.85
2019-06-15T02:20:38.183Z,934.81
2019-06-15T02:21:38.171Z,934.80
2019-06-15T02:22:38.174Z,934.83
2019-06-15T02:23:38.162Z,934.78
2019-06-15T02:24:38.155Z,934.80
2019-06-15T02:25:38.105Z,934.81
2019-06-15T02:26:38.087Z,934.80
2019-06-15T02:27:38.066Z,934.80
2019-06-15T02:28:38.038Z,934.79
2019-06-15T02:29:38.012Z,934.77
2019-06-15T02:30:38.013Z,934.81
2019-06-15T02:31:37.978Z,934.84
2019-06-15T02:32:37.947Z,934.83
2019-06-15T02:33:37.940Z,934.80
2019-06-15T02:34:37.916Z,934.83
2019-06-15T02:35:37.889Z,934.81
2019-06-15T02:36:37.873Z,934.83
2019-06-15T02:37:37.847Z,934.81
2019-06-15T02:38:37.829Z,934.81
2019-06-15T02:39:37.807Z,934.80
2019-06-15T02:40:37.790Z,934.80
2019-06-15T02:41:37.763Z,934.80
2019-06-15T02:42:37.752Z,934.82
2019-06-15T02:43:37.724Z,934.78
2019-06-15T02:44:37.697Z,934.80
2019-06-15T02:45:37.656Z,934.82
2019-06-15T02:46:37.631Z,934.80
2019-06-15T02:47:37.614Z,934.80
2019-06-15T02:48:37.588Z,934.77
2019-06-15T02:49:37.569Z,934.79
2019-06-15T02:50:37.576Z,934.83
2019-06-15T02:51:37.560Z,934.81
2019-06-15T02:52:37.518Z,934.80
2019-06-15T02:53:37.514Z,934.77
2019-06-15T02:54:37.462Z,934.75
2019-06-15T02:55:49.773Z,934.78
2019-06-15T02:56:37.437Z,934.71
2019-06-15T02:57:37.412Z,934.73
2019-06-15T02:58:37.379Z,934.75
2019-06-15T02:59:37.360Z,934.73
2019-06-15T03:00:37.336Z,934.72
2019-06-15T03:01:37.316Z,934.75
2019-06-15T03:02:37.298Z,934.77
2019-06-15T03:03:37.286Z,934.78
2019-06-15T03:04:37.265Z,934.75
2019-06-15T03:05:37.243Z,934.75
2019-06-15T03:06:37.221Z,934.74
2019-06-15T03:07:37.199Z,934.73
2019-06-15T03:08:37.191Z,934.69
2019-06-15T03:09:37.145Z,934.72
2019-06-15T03:10:37.156Z,934.71
2019-06-15T03:11:37.131Z,934.69
2019-06-15T03:12:37.104Z,934.72
2019-06-15T03:13:37.079Z,934.80
2019-06-15T03:14:37.035Z,934.80
2019-06-15T03:15:37.029Z,934.74
2019-06-15T03:16:37.009Z,934.75
2019-06-15T03:17:37.007Z,934.78
2019-06-15T03:18:36.973Z,934.79
2019-06-15T03:19:36.944Z,934.80
2019-06-15T03:20:36.926Z,934.78
2019-06-15T03:21:36.921Z,934.77
2019-06-15T03:22:36.895Z,934.76
2019-06-15T03:23:36.870Z,934.77
2019-06-15T03:24:36.824Z,934.79
2019-06-15T03:25:36.804Z,934.77
2019-06-15T03:26:36.810Z,934.74
2019-06-15T03:27:36.770Z,934.71
2019-06-15T03:28:36.762Z,934.76
2019-06-15T03:29:36.743Z,934.73
2019-06-15T03:30:36.711Z,934.73
2019-06-15T03:31:36.702Z,934.71
2019-06-15T03:32:36.683Z,934.65
2019-06-15T03:33:36.666Z,934.65
2019-06-15T03:34:36.618Z,934.64
2019-06-15T03:35:36.609Z,934.60
2019-06-15T03:36:36.561Z,934.60
2019-06-15T03:37:36.572Z,934.66
2019-06-15T03:38:36.535Z,934.62
2019-06-15T03:39:36.532Z,934.66
2019-06-15T03:40:36.503Z,934.63
2019-06-15T03:41:36.507Z,934.62
2019-06-15T03:42:36.433Z,934.64
2019-06-15T03:43:36.407Z,934.65
2019-06-15T03:44:36.413Z,934.57
2019-06-15T03:45:36.394Z,934.54
2019-06-15T03:46:36.363Z,934.54
2019-06-15T03:47:36.352Z,934.52
2019-06-15T03:48:36.326Z,934.54
2019-06-15T03:49:36.302Z,934.48
2019-06-15T03:50:36.259Z,934.51
2019-06-15T03:51:36.266Z,934.48
2019-06-15T03:52:36.241Z,934.46
2019-06-15T03:53:36.218Z,934.54
2019-06-15T03:54:36.192Z,934.49
2019-06-15T03:55:36.163Z,934.49
2019-06-15T03:56:36.167Z,934.45
2019-06-15T03:57:36.129Z,934.49
2019-06-15T03:58:36.113Z,934.48
2019-06-15T03:59:36.066Z,934.49
2019-06-15T04:00:36.069Z,934.45
2019-06-15T04:01:36.050Z,934.45
2019-06-15T04:02:36.009Z,934.42
2019-06-15T04:03:35.981Z,934.44
2019-06-15T04:04:35.964Z,934.41
2019-06-15T04:05:35.937Z,934.39
2019-06-15T04:06:35.907Z,934.42
2019-06-15T04:07:35.901Z,934.40
2019-06-15T04:08:35.893Z,934.40
2019-06-15T04:09:35.871Z,934.38
2019-06-15T04:10:35.843Z,934.38
2019-06-15T04:11:35.822Z,934.39
2019-06-15T04:12:35.809Z,934.34
2019-06-15T04:13:35.757Z,934.39
2019-06-15T04:14:35.766Z,934.36
2019-06-15T04:15:35.743Z,934.38
2019-06-15T04:16:35.730Z,934.37
2019-06-15T04:17:35.689Z,934.36
2019-06-15T04:18:35.648Z,934.34
2019-06-15T04:19:35.644Z,934.33
2019-06-15T04:20:35.627Z,934.35
2019-06-15T04:21:35.598Z,934.33
2019-06-15T04:22:35.579Z,934.30
2019-06-15T04:23:35.562Z,934.36
2019-06-15T04:24:35.535Z,934.32
2019-06-15T04:25:35.509Z,934.31
2019-06-15T04:26:36.498Z,934.31
2019-06-15T04:27:35.480Z,934.28
2019-06-15T04:28:35.454Z,934.27
2019-06-15T04:29:35.429Z,934.20
2019-06-15T04:30:35.409Z,934.20
2019-06-15T04:31:35.380Z,934.21
2019-06-15T04:32:35.355Z,934.19
2019-06-15T04:33:35.309Z,934.17
2019-06-15T04:34:35.307Z,934.15
2019-06-15T04:35:35.304Z,934.22
2019-06-15T04:36:35.266Z,934.21
2019-06-15T04:37:35.256Z,934.25
2019-06-15T04:38:35.221Z,934.21
2019-06-15T04:39:35.209Z,934.21
2019-06-15T04:40:35.190Z,934.20
2019-06-15T04:41:35.157Z,934.20
2019-06-15T04:42:35.165Z,934.19
2019-06-15T04:43:35.091Z,934.15
2019-06-15T04:44:35.095Z,934.19
2019-06-15T04:45:35.067Z,934.13
2019-06-15T04:46:35.055Z,934.12
2019-06-15T04:47:35.012Z,934.13
2019-06-15T04:48:34.988Z,934.09
2019-06-15T04:49:34.970Z,934.16
2019-06-15T04:50:34.956Z,934.15
2019-06-15T04:51:34.935Z,934.16
2019-06-15T04:52:34.896Z,934.18
2019-06-15T04:53:34.894Z,934.17
2019-06-15T04:54:34.883Z,934.13
2019-06-15T04:55:34.835Z,934.04
2019-06-15T04:56:34.835Z,934.09
2019-06-15T04:57:34.792Z,934.12
2019-06-15T04:58:34.787Z,934.07
2019-06-15T04:59:34.765Z,934.05
2019-06-15T05:00:34.735Z,934.01
2019-06-15T05:01:34.715Z,934.11
2019-06-15T05:02:34.710Z,934.08
2019-06-15T05:03:34.688Z,934.06
2019-06-15T05:04:34.667Z,934.08
2019-06-15T05:05:34.637Z,934.07
2019-06-15T05:06:34.627Z,934.01
2019-06-15T05:07:34.598Z,934.01
2019-06-15T05:08:34.587Z,934.01
2019-06-15T05:09:34.561Z,934.00
2019-06-15T05:10:34.540Z,934.00
2019-06-15T05:11:34.500Z,933.98
2019-06-15T05:12:34.486Z,933.99
2019-06-15T05:13:34.444Z,933.97
2019-06-15T05:14:34.441Z,933.96
2019-06-15T05:15:34.689Z,934.03
2019-06-15T05:16:34.409Z,934.05
2019-06-15T05:17:34.361Z,934.01
2019-06-15T05:18:34.352Z,934.01
2019-06-15T05:19:34.303Z,934.01
2019-06-15T05:20:34.287Z,934.01
2019-06-15T05:21:34.261Z,934.03
2019-06-15T05:22:34.256Z,934.03
2019-06-15T05:23:34.247Z,934.06
2019-06-15T05:24:34.222Z,934.05
2019-06-15T05:25:34.171Z,934.03
2019-06-15T05:26:34.180Z,934.06
2019-06-15T05:27:34.129Z,934.07
2019-06-15T05:28:34.112Z,934.04
2019-06-15T05:29:34.089Z,934.05
2019-06-15T05:30:34.091Z,934.02
2019-06-15T05:31:34.071Z,934.02
2019-06-15T05:32:34.054Z,934.07
2019-06-15T05:33:34.028Z,934.01
2019-06-15T05:34:34.013Z,933.99
2019-06-15T05:35:33.971Z,934.01
2019-06-15T05:36:33.959Z,934.02
2019-06-15T05:37:33.928Z,934.03
2019-06-15T05:38:33.892Z,934.02
2019-06-15T05:39:33.877Z,934.02
2019-06-15T05:40:33.845Z,934.04
2019-06-15T05:41:33.829Z,934.06
2019-06-15T05:42:33.823Z,934.05
2019-06-15T05:43:33.805Z,934.05
2019-06-15T05:44:33.775Z,933.97
2019-06-15T05:45:33.767Z,934.02
2019-06-15T05:46:33.746Z,934.00
2019-06-15T05:47:33.721Z,933.99
2019-06-15T05:48:33.700Z,933.99
2019-06-15T05:49:33.664Z,934.02
2019-06-15T05:50:33.645Z,934.01
2019-06-15T05:51:33.629Z,933.97
2019-06-15T05:52:33.618Z,934.02
2019-06-15T05:53:33.591Z,934.03
2019-06-15T05:54:33.553Z,934.01
2019-06-15T05:55:33.520Z,934.01
2019-06-15T05:56:33.653Z,933.99
2019-06-15T05:57:33.500Z,933.97
2019-06-15T05:58:33.467Z,933.94
2019-06-15T05:59:33.464Z,933.96
2019-06-15T06:00:33.421Z,933.94
2019-06-15T06:01:33.410Z,933.93
2019-06-15T06:02:33.395Z,933.88
2019-06-15T06:03:33.340Z,933.90
2019-06-15T06:04:33.531Z,933.88
2019-06-15T06:05:33.295Z,933.90
2019-06-15T06:06:33.291Z,933.87
2019-06-15T06:07:33.279Z,933.88
2019-06-15T06:08:33.274Z,933.89
2019-06-15T06:09:33.238Z,933.86
2019-06-15T06:10:33.217Z,933.87
2019-06-15T06:11:33.198Z,933.82
2019-06-15T06:12:33.158Z,933.84
2019-06-15T06:13:33.141Z,933.83
2019-06-15T06:14:33.120Z,933.84
2019-06-15T06:15:33.114Z,933.82
2019-06-15T06:16:33.076Z,933.83
2019-06-15T06:17:33.035Z,933.85
2019-06-15T06:18:33.006Z,933.84
2019-06-15T06:19:33.009Z,933.79
2019-06-15T06:20:32.995Z,933.80
2019-06-15T06:21:32.960Z,933.78
2019-06-15T06:22:32.926Z,933.77
2019-06-15T06:23:32.901Z,933.78
2019-06-15T06:24:32.919Z,933.77
2019-06-15T06:25:32.892Z,933.81
2019-06-15T06:26:32.859Z,933.78
2019-06-15T06:27:36.418Z,933.78
2019-06-15T06:28:32.800Z,933.74
2019-06-15T06:29:32.760Z,933.75
2019-06-15T06:30:32.757Z,933.74
2019-06-15T06:31:32.726Z,933.73
2019-06-15T06:32:32.725Z,933.72
2019-06-15T06:33:32.671Z,933.70
2019-06-15T06:34:32.691Z,933.73
2019-06-15T06:35:32.649Z,933.69
2019-06-15T06:36:32.677Z,933.72
2019-06-15T06:37:32.612Z,933.72
2019-06-15T06:38:32.562Z,933.68
2019-06-15T06:39:32.573Z,933.72
2019-06-15T06:40:32.544Z,933.70
2019-06-15T06:41:32.512Z,933.66
2019-06-15T06:42:32.497Z,933.67
2019-06-15T06:43:32.448Z,933.72
2019-06-15T06:44:32.422Z,933.70
2019-06-15T06:45:32.405Z,933.72
2019-06-15T06:46:32.392Z,933.70
2019-06-15T06:47:32.376Z,933.69
2019-06-15T06:48:32.344Z,933.70
2019-06-15T06:49:32.376Z,933.65
2019-06-15T06:50:32.308Z,933.70
2019-06-15T06:51:32.294Z,933.63
2019-06-15T06:52:32.265Z,933.68
2019-06-15T06:53:32.231Z,933.61
2019-06-15T06:54:32.223Z,933.70
2019-06-15T06:55:32.188Z,933.65
2019-06-15T06:56:32.171Z,933.66
2019-06-15T06:57:32.139Z,933.60
2019-06-15T06:58:32.132Z,933.64
2019-06-15T06:59:32.111Z,933.66
2019-06-15T07:00:32.090Z,933.69
2019-06-15T07:01:32.057Z,933.62
2019-06-15T07:02:32.030Z,933.70
2019-06-15T07:03:32.011Z,933.63
2019-06-15T07:04:31.977Z,933.66
2019-06-15T07:05:31.953Z,933.63
2019-06-15T07:06:31.947Z,933.60
2019-06-15T07:07:31.893Z,933.63
2019-06-15T07:08:31.897Z,933.59
2019-06-15T07:09:31.879Z,933.62
2019-06-15T07:10:31.835Z,933.62
2019-06-15T07:11:31.818Z,933.66
2019-06-15T07:12:31.798Z,933.61
2019-06-15T07:13:31.778Z,933.60
2019-06-15T07:14:31.758Z,933.57
2019-06-15T07:15:31.739Z,933.61
2019-06-15T07:16:31.705Z,933.58
2019-06-15T07:17:31.680Z,933.56
2019-06-15T07:18:31.666Z,933.56
2019-06-15T07:19:31.640Z,933.54
2019-06-15T07:20:31.621Z,933.52
2019-06-15T07:21:31.581Z,933.56
2019-06-15T07:22:31.576Z,933.55
2019-06-15T07:23:32.098Z,933.57
2019-06-15T07:24:31.527Z,933.55
2019-06-15T07:25:31.536Z,933.58
2019-06-15T07:26:31.454Z,933.57
2019-06-15T07:27:31.428Z,933.57
2019-06-15T07:28:31.440Z,933.60
2019-06-15T07:29:31.386Z,933.59
2019-06-15T07:30:31.391Z,933.59
2019-06-15T07:31:31.349Z,933.60
2019-06-15T07:32:31.306Z,933.60
2019-06-15T07:33:31.310Z,933.59
2019-06-15T07:34:31.267Z,933.64
2019-06-15T07:35:31.287Z,933.64
2019-06-15T07:36:31.239Z,933.57
2019-06-15T07:37:31.225Z,933.60
2019-06-15T07:38:31.200Z,933.61
2019-06-15T07:39:31.180Z,933.67
2019-06-15T07:40:31.152Z,933.62
2019-06-15T07:41:31.122Z,933.67
2019-06-15T07:42:31.097Z,933.67
2019-06-15T07:43:31.089Z,933.67
2019-06-15T07:44:31.055Z,933.68
2019-06-15T07:45:31.035Z,933.69
2019-06-15T07:46:31.021Z,933.65
2019-06-15T07:47:30.990Z,933.67
2019-06-15T07:48:30.966Z,933.71
2019-06-15T07:49:30.915Z,933.69
2019-06-15T07:50:30.921Z,933.72
2019-06-15T07:51:30.884Z,933.72
2019-06-15T07:52:30.868Z,933.71
2019-06-15T07:53:30.840Z,933.72
2019-06-15T07:54:30.818Z,933.74
2019-06-15T07:55:30.789Z,933.75
2019-06-15T07:56:30.781Z,933.76
2019-06-15T07:57:30.754Z,933.76
2019-06-15T07:58:30.720Z,933.77
2019-06-15T07:59:30.698Z,933.77
2019-06-15T08:00:30.683Z,933.74
2019-06-15T08:01:30.671Z,933.79
2019-06-15T08:02:30.615Z,933.80
2019-06-15T08:03:30.631Z,933.81
2019-06-15T08:04:30.597Z,933.82
2019-06-15T08:05:30.587Z,933.87
2019-06-15T08:06:30.537Z,933.83
2019-06-15T08:07:30.526Z,933.86
2019-06-15T08:08:30.499Z,933.82
2019-06-15T08:09:30.487Z,933.85
2019-06-15T08:10:30.456Z,933.84
2019-06-15T08:11:30.441Z,933.85
2019-06-15T08:12:30.406Z,933.87
2019-06-15T08:13:30.362Z,933.79
2019-06-15T08:14:30.367Z,933.87
2019-06-15T08:15:30.330Z,933.88
2019-06-15T08:16:30.309Z,933.87
2019-06-15T08:17:30.297Z,933.89
2019-06-15T08:18:30.277Z,933.92
2019-06-15T08:19:30.238Z,933.91
2019-06-15T08:20:30.220Z,933.94
2019-06-15T08:21:30.195Z,933.95
2019-06-15T08:22:30.180Z,933.96
2019-06-15T08:23:30.140Z,933.98
2019-06-15T08:24:30.127Z,933.94
2019-06-15T08:25:30.120Z,933.93
2019-06-15T08:26:30.084Z,933.95
2019-06-15T08:27:30.034Z,933.99
2019-06-15T08:28:39.947Z,934.02
2019-06-15T08:29:30.003Z,933.98
2019-06-15T08:30:30.025Z,933.98
2019-06-15T08:31:29.976Z,934.01
2019-06-15T08:32:29.941Z,934.02
2019-06-15T08:33:29.924Z,933.99
2019-06-15T08:34:29.901Z,934.03
2019-06-15T08:35:29.867Z,934.01
2019-06-15T08:36:29.817Z,934.00
2019-06-15T08:37:29.834Z,934.03
2019-06-15T08:38:29.865Z,933.97
2019-06-15T08:39:29.754Z,934.01
2019-06-15T08:40:29.758Z,933.98
2019-06-15T08:41:29.707Z,934.00
2019-06-15T08:42:29.707Z,933.99
2019-06-15T08:43:29.689Z,934.02
2019-06-15T08:44:29.652Z,934.03
2019-06-15T08:45:29.644Z,934.04
2019-06-15T08:46:29.605Z,934.05
2019-06-15T08:47:29.566Z,934.05
2019-06-15T08:48:29.571Z,934.08
2019-06-15T08:49:29.551Z,934.09
2019-06-15T08:50:29.507Z,934.08
2019-06-15T08:51:29.475Z,934.11
2019-06-15T08:52:29.473Z,934.13
2019-06-15T08:53:29.423Z,934.10
2019-06-15T08:54:29.431Z,934.13
2019-06-15T08:55:29.402Z,934.15
2019-06-15T08:56:29.384Z,934.16
2019-06-15T08:57:29.360Z,934.17
2019-06-15T08:58:29.322Z,934.18
2019-06-15T08:59:29.300Z,934.14
2019-06-15T09:00:29.287Z,934.15
2019-06-15T09:01:29.272Z,934.16
2019-06-15T09:02:29.235Z,934.16
2019-06-15T09:03:29.215Z,934.16
2019-06-15T09:04:29.185Z,934.15
2019-06-15T09:05:29.170Z,934.25
2019-06-15T09:06:29.145Z,934.21
2019-06-15T09:07:29.116Z,934.23
2019-06-15T09:08:29.099Z,934.20
2019-06-15T09:09:29.065Z,934.19
2019-06-15T09:10:29.077Z,934.15
2019-06-15T09:11:29.030Z,934.18
2019-06-15T09:12:28.999Z,934.11
2019-06-15T09:13:28.979Z,934.21
2019-06-15T09:14:28.968Z,934.24
2019-06-15T09:15:28.918Z,934.21
2019-06-15T09:16:28.906Z,934.21
2019-06-15T09:17:28.866Z,934.25
2019-06-15T09:18:28.848Z,934.27
2019-06-15T09:19:28.839Z,934.25
2019-06-15T09:20:28.831Z,934.23
2019-06-15T09:21:28.761Z,934.26
2019-06-15T09:22:28.769Z,934.24
2019-06-15T09:23:28.733Z,934.31
2019-06-15T09:24:28.716Z,934.27
2019-06-15T09:25:28.688Z,934.25
2019-06-15T09:26:28.747Z,934.23
2019-06-15T09:27:28.649Z,934.29
2019-06-15T09:28:28.611Z,934.28
2019-06-15T09:29:28.589Z,934.34
2019-06-15T09:30:28.582Z,934.34
2019-06-15T09:31:28.558Z,934.34
2019-06-15T09:32:28.523Z,934.37
2019-06-15T09:33:28.474Z,934.36
2019-06-15T09:34:28.456Z,934.38
2019-06-15T09:35:28.460Z,934.36
2019-06-15T09:36:28.438Z,934.40
2019-06-15T09:37:28.384Z,934.37
2019-06-15T09:38:28.364Z,934.38
2019-06-15T09:39:28.355Z,934.37
2019-06-15T09:40:28.338Z,934.38
2019-06-15T09:41:28.303Z,934.35
2019-06-15T09:42:28.263Z,934.33
2019-06-15T09:43:28.269Z,934.32
2019-06-15T09:44:28.217Z,934.33
2019-06-15T09:45:28.195Z,934.32
2019-06-15T09:46:28.189Z,934.30
2019-06-15T09:47:28.172Z,934.35
2019-06-15T09:48:28.199Z,934.35
2019-06-15T09:49:28.122Z,934.35
2019-06-15T09:50:28.094Z,934.38
2019-06-15T09:51:28.063Z,934.38
2019-06-15T09:52:28.051Z,934.35
2019-06-15T09:53:28.031Z,934.36
2019-06-15T09:54:28.270Z,934.37
2019-06-15T09:55:27.950Z,934.36
2019-06-15T09:56:27.953Z,934.40
2019-06-15T09:57:27.912Z,934.42
2019-06-15T09:58:27.901Z,934.45
2019-06-15T09:59:27.879Z,934.43
2019-06-15T10:00:27.862Z,934.44
2019-06-15T10:01:27.827Z,934.50
2019-06-15T10:02:27.808Z,934.53
2019-06-15T10:03:27.792Z,934.56
2019-06-15T10:04:27.758Z,934.60
2019-06-15T10:05:27.750Z,934.64
2019-06-15T10:06:27.711Z,934.69
2019-06-15T10:07:27.710Z,934.69
2019-06-15T10:08:27.683Z,934.71
2019-06-15T10:09:27.651Z,934.73
2019-06-15T10:10:27.635Z,934.70
2019-06-15T10:11:27.605Z,934.72
2019-06-15T10:12:27.558Z,934.81
2019-06-15T10:13:27.563Z,934.83
2019-06-15T10:14:27.523Z,934.86
2019-06-15T10:15:27.518Z,934.89
2019-06-15T10:16:27.493Z,934.90
2019-06-15T10:17:27.458Z,934.95
2019-06-15T10:18:27.450Z,934.89
2019-06-15T10:19:27.397Z,934.99
2019-06-15T10:20:27.406Z,935.04
2019-06-15T10:21:27.383Z,935.05
2019-06-15T10:22:27.348Z,935.09
2019-06-15T10:23:27.337Z,935.07
2019-06-15T10:24:27.315Z,935.04
2019-06-15T10:25:27.322Z,935.13
2019-06-15T10:26:27.277Z,935.19
2019-06-15T10:27:27.239Z,935.16
2019-06-15T10:28:27.229Z,935.11
2019-06-15T10:29:41.270Z,935.13
2019-06-15T10:30:27.161Z,935.17
2019-06-15T10:31:27.158Z,935.22
2019-06-15T10:32:27.138Z,935.22
2019-06-15T10:33:27.119Z,935.20
2019-06-15T10:34:27.096Z,935.19
2019-06-15T10:35:27.082Z,935.21
2019-06-15T10:36:27.055Z,935.29
2019-06-15T10:37:27.040Z,935.31
2019-06-15T10:38:27.025Z,935.31
2019-06-15T10:39:27.014Z,935.28
2019-06-15T10:40:26.951Z,935.26
2019-06-15T10:41:26.930Z,935.32
2019-06-15T10:42:26.936Z,935.32
2019-06-15T10:43:26.905Z,935.35
2019-06-15T10:44:26.891Z,935.35
2019-06-15T10:45:26.879Z,935.42
2019-06-15T10:46:26.829Z,935.38
2019-06-15T10:47:26.816Z,935.39
2019-06-15T10:48:26.794Z,935.40
2019-06-15T10:49:26.803Z,935.43
2019-06-15T10:50:26.769Z,935.48
2019-06-15T10:51:26.758Z,935.49
2019-06-15T10:52:26.729Z,935.55
2019-06-15T10:53:26.723Z,935.58
2019-06-15T10:54:26.709Z,935.60
2019-06-15T10:55:26.677Z,935.57
2019-06-15T10:56:26.660Z,935.60
2019-06-15T10:57:26.627Z,935.63
2019-06-15T10:58:26.628Z,935.64
2019-06-15T10:59:26.611Z,935.68
2019-06-15T11:00:26.572Z,935.71
2019-06-15T11:01:26.574Z,935.70
2019-06-15T11:02:26.560Z,935.80
2019-06-15T11:03:26.531Z,935.86
2019-06-15T11:04:26.495Z,935.86
2019-06-15T11:05:26.500Z,935.80
2019-06-15T11:06:26.490Z,935.80
2019-06-15T11:07:26.443Z,935.81
2019-06-15T11:08:26.451Z,935.86
2019-06-15T11:09:26.433Z,935.89
2019-06-15T11:10:26.405Z,935.85
2019-06-15T11:11:26.394Z,935.90
2019-06-15T11:12:26.382Z,935.92
2019-06-15T11:13:26.350Z,935.95
2019-06-15T11:14:26.342Z,935.92
2019-06-15T11:15:26.332Z,935.92
2019-06-15T11:16:26.286Z,935.95
2019-06-15T11:17:26.288Z,935.97
2019-06-15T11:18:26.263Z,936.01
2019-06-15T11:19:26.248Z,936.04
2019-06-15T11:20:26.250Z,936.09
2019-06-15T11:21:26.224Z,936.03
2019-06-15T11:22:26.212Z,936.07
2019-06-15T11:23:26.193Z,936.07
2019-06-15T11:24:26.148Z,936.15
2019-06-15T11:25:26.167Z,936.15
2019-06-15T11:26:26.135Z,936.17
2019-06-15T11:27:26.130Z,936.12
2019-06-15T11:28:26.101Z,936.19
2019-06-15T11:29:26.104Z,936.21
2019-06-15T11:30:26.087Z,936.21
2019-06-15T11:31:26.066Z,936.20
2019-06-15T11:32:26.037Z,936.26
2019-06-15T11:33:26.039Z,936.29
2019-06-15T11:34:26.007Z,936.30
2019-06-15T11:35:25.983Z,936.34
2019-06-15T11:36:25.974Z,936.35
2019-06-15T11:37:25.984Z,936.33
2019-06-15T11:38:25.951Z,936.37
2019-06-15T11:39:25.943Z,936.35
2019-06-15T11:40:25.924Z,936.34
2019-06-15T11:41:25.922Z,936.35
2019-06-15T11:42:25.898Z,936.39
2019-06-15T11:43:25.851Z,936.43
2019-06-15T11:44:25.865Z,936.45
2019-06-15T11:45:25.856Z,936.61
2019-06-15T11:46:25.823Z,936.77
2019-06-15T11:47:25.823Z,936.92
2019-06-15T11:48:25.811Z,936.96
2019-06-15T11:49:25.793Z,936.95
2019-06-15T11:50:25.752Z,936.90
2019-06-15T11:51:25.756Z,936.88
2019-06-15T11:52:25.743Z,936.84
2019-06-15T11:53:25.728Z,936.83
2019-06-15T11:54:25.710Z,936.66
2019-06-15T11:55:38.651Z,936.47
2019-06-15T11:56:25.688Z,936.47
2019-06-15T11:57:25.678Z,936.48
2019-06-15T11:58:25.643Z,936.52
2019-06-15T11:59:25.638Z,936.53
2019-06-15T12:00:31.325Z,936.51
2019-06-15T12:01:25.602Z,936.54
2019-06-15T12:02:25.638Z,936.55
2019-06-15T12:03:25.558Z,936.56
2019-06-15T12:04:25.531Z,936.61
2019-06-15T12:05:25.522Z,936.65
2019-06-15T12:06:25.540Z,936.64
2019-06-15T12:07:25.544Z,936.61
2019-06-15T12:08:25.502Z,936.64
2019-06-15T12:09:25.500Z,936.68
2019-06-15T12:10:25.470Z,936.65
2019-06-15T12:11:25.450Z,936.75
2019-06-15T12:12:25.444Z,936.69
2019-06-15T12:13:25.431Z,936.64
2019-06-15T12:14:25.408Z,936.74
2019-06-15T12:15:25.387Z,936.76
2019-06-15T12:16:25.373Z,936.84
2019-06-15T12:17:25.346Z,936.88
2019-06-15T12:18:25.370Z,936.91
2019-06-15T12:19:25.341Z,936.93
2019-06-15T12:20:25.318Z,936.92
2019-06-15T12:21:25.302Z,936.89
2019-06-15T12:22:25.268Z,936.95
2019-06-15T12:23:25.266Z,936.94
2019-06-15T12:24:25.237Z,936.86
2019-06-15T12:25:25.224Z,936.87
2019-06-15T12:26:25.191Z,936.92
2019-06-15T12:27:25.203Z,937.04
2019-06-15T12:28:25.161Z,937.26